Time;durP1;ratioP1;P1;durP2;ratioP2;P2;SDS_P1;SDS_P2;PMS_P1;PMS_P2;Temp;Humidity;BMP_temperature;BMP_pressure;BME280_temperature;BME280_humidity;BME280_pressure;Samples;Min_cycle;Max_cycle;Signal;HPM_P1;HPM_P2
2023/02/24 00:02:03;;;;;;;55.78;15.18;;;4.70;99.90;;;;;;5023016;28;20120;-69
2023/02/24 00:04:33;;;;;;;43.58;13.25;;;4.80;99.90;;;;;;5029133;28;20060;-73
2023/02/24 00:07:01;;;;;;;48.92;15.10;;;4.70;99.90;;;;;;5030293;28;20045;-72
2023/02/24 00:09:29;;;;;;;42.42;13.68;;;4.60;99.90;;;;;;5045610;28;20045;-69
2023/02/24 00:12:02;;;;;;;42.97;11.85;;;4.60;99.90;;;;;;5061878;28;20043;-71
2023/02/24 00:14:32;;;;;;;41.67;12.90;;;4.30;99.90;;;;;;5050582;28;20036;-74
2023/02/24 00:16:59;;;;;;;42.08;11.77;;;4.20;99.90;;;;;;5026789;28;20043;-71
2023/02/24 00:19:31;;;;;;;36.75;10.35;;;4.20;99.90;;;;;;5016628;28;20155;-72
2023/02/24 00:21:58;;;;;;;39.15;10.20;;;4.30;99.90;;;;;;5042549;28;20044;-71
2023/02/24 00:24:26;;;;;;;40.90;9.88;;;4.30;99.90;;;;;;5008412;28;20127;-72
2023/02/24 00:26:58;;;;;;;33.72;10.20;;;4.10;99.90;;;;;;5013023;28;20664;-73
2023/02/24 00:29:27;;;;;;;25.75;9.77;;;4.10;99.90;;;;;;5022145;28;20159;-72
2023/02/24 00:31:59;;;;;;;34.25;9.60;;;4.00;99.90;;;;;;5023636;28;20055;-72
2023/02/24 00:34:33;;;;;;;38.90;8.80;;;4.10;99.90;;;;;;5025281;28;20036;-70
2023/02/24 00:37:00;;;;;;;37.47;10.02;;;4.10;99.90;;;;;;5018721;28;20047;-72
2023/02/24 00:39:33;;;;;;;31.27;8.82;;;4.10;99.90;;;;;;5015934;28;20189;-72
2023/02/24 00:42:03;;;;;;;35.35;11.43;;;4.00;99.90;;;;;;5020547;28;20037;-71
2023/02/24 00:44:32;;;;;;;52.90;11.32;;;4.00;99.90;;;;;;5012171;28;20232;-73
2023/02/24 00:47:01;;;;;;;41.10;11.50;;;4.00;99.90;;;;;;5034421;28;20049;-72
2023/02/24 00:49:28;;;;;;;37.10;10.90;;;4.10;99.90;;;;;;5036630;28;20041;-72
2023/02/24 00:51:56;;;;;;;46.75;11.32;;;4.10;99.90;;;;;;5003157;28;20041;-72
2023/02/24 00:54:26;;;;;;;32.08;10.40;;;3.90;99.90;;;;;;5003989;28;20059;-72
2023/02/24 00:56:54;;;;;;;44.95;9.73;;;3.90;99.90;;;;;;5040934;28;20044;-69
2023/02/24 00:59:22;;;;;;;48.28;10.85;;;3.90;99.90;;;;;;5015679;28;20049;-69
2023/02/24 01:01:50;;;;;;;46.10;10.85;;;3.80;99.90;;;;;;5017471;28;20136;-71
2023/02/24 01:04:18;;;;;;;36.55;10.88;;;3.80;99.90;;;;;;5003117;28;20427;-70
2023/02/24 01:06:48;;;;;;;37.58;11.55;;;3.80;99.90;;;;;;5016035;28;20059;-70
2023/02/24 01:09:19;;;;;;;40.72;11.05;;;3.90;99.90;;;;;;5015758;28;20352;-70
2023/02/24 01:12:16;;;;;;;46.60;12.68;;;3.90;99.90;;;;;;5006487;28;20094;-71
2023/02/24 01:14:48;;;;;;;58.22;14.20;;;4.00;99.90;;;;;;5015231;28;20053;-70
2023/02/24 01:17:17;;;;;;;57.35;12.32;;;4.00;99.90;;;;;;5012755;28;20043;-70
2023/02/24 01:19:47;;;;;;;44.65;11.50;;;4.00;99.90;;;;;;5042525;28;20350;-70
2023/02/24 01:22:15;;;;;;;39.17;12.27;;;4.00;99.90;;;;;;5016846;28;20033;-70
2023/02/24 01:24:43;;;;;;;49.90;11.88;;;3.90;99.90;;;;;;5024780;28;20041;-70
2023/02/24 01:27:17;;;;;;;39.45;11.10;;;3.90;99.90;;;;;;5018712;28;20052;-70
2023/02/24 01:29:46;;;;;;;44.08;10.48;;;3.90;99.90;;;;;;5024656;28;20049;-70
2023/02/24 01:32:18;;;;;;;46.72;10.40;;;3.80;99.90;;;;;;5019872;28;20049;-70
2023/02/24 01:34:46;;;;;;;41.10;11.07;;;3.90;99.90;;;;;;5020668;28;20037;-69
2023/02/24 01:37:15;;;;;;;49.63;11.68;;;4.00;99.90;;;;;;5024027;28;20123;-71
2023/02/24 01:39:43;;;;;;;44.83;13.27;;;3.90;99.90;;;;;;5040989;28;20220;-70
2023/02/24 01:42:15;;;;;;;37.58;10.80;;;3.90;99.90;;;;;;5027235;28;20526;-71
2023/02/24 01:44:42;;;;;;;38.95;10.20;;;3.90;99.90;;;;;;5025969;28;20134;-70
2023/02/24 01:47:10;;;;;;;49.60;11.55;;;3.90;99.90;;;;;;5021456;28;20312;-72
2023/02/24 01:49:42;;;;;;;74.45;12.18;;;3.90;99.90;;;;;;5041042;28;20674;-71
2023/02/24 01:52:17;;;;;;;44.22;10.50;;;3.90;99.90;;;;;;5019187;28;20041;-69
2023/02/24 01:55:02;;;;;;;53.47;10.70;;;3.90;99.90;;;;;;5015577;28;20122;-73
2023/02/24 01:57:32;;;;;;;49.08;9.40;;;3.80;99.90;;;;;;5027636;28;20043;-70
2023/02/24 02:00:29;;;;;;;38.10;9.88;;;3.80;99.90;;;;;;5004427;28;20324;-70
2023/02/24 02:02:52;;;;;;;41.35;9.93;;;3.70;99.90;;;;;;5016381;28;20164;-71
2023/02/24 02:05:19;;;;;;;36.72;9.07;;;3.80;99.90;;;;;;5020143;28;20044;-72
2023/02/24 02:07:46;;;;;;;44.55;9.35;;;3.80;99.90;;;;;;5032299;28;20202;-71
2023/02/24 02:10:17;;;;;;;51.83;10.50;;;3.80;99.90;;;;;;5021310;28;20098;-70
2023/02/24 02:12:44;;;;;;;37.25;10.48;;;3.80;99.90;;;;;;5039577;28;20049;-71
2023/02/24 02:15:15;;;;;;;37.38;9.82;;;3.80;99.90;;;;;;5002956;28;20055;-73
2023/02/24 02:17:50;;;;;;;33.17;8.75;;;3.70;99.90;;;;;;5047839;28;20179;-72
2023/02/24 02:20:46;;;;;;;46.67;10.27;;;3.60;99.90;;;;;;5025395;28;20200;-70
2023/02/24 02:23:14;;;;;;;36.75;8.27;;;3.50;99.90;;;;;;5020894;28;20041;-72
2023/02/24 02:26:05;;;;;;;36.17;9.27;;;3.50;99.90;;;;;;5028542;28;20028;-72
2023/02/24 02:29:07;;;;;;;31.38;8.68;;;3.50;99.90;;;;;;5015454;28;20305;-73
2023/02/24 02:31:54;;;;;;;58.53;9.10;;;3.60;99.90;;;;;;5028615;28;20064;-72
2023/02/24 02:34:49;;;;;;;31.55;7.97;;;3.60;99.90;;;;;;5034921;28;20526;-71
2023/02/24 02:37:39;;;;;;;44.70;8.88;;;3.60;99.90;;;;;;5020018;28;20694;-71
2023/02/24 02:40:18;;;;;;;39.25;9.50;;;3.70;99.90;;;;;;5023739;28;20044;-71
2023/02/24 02:43:00;;;;;;;40.30;10.32;;;3.60;99.90;;;;;;5012229;28;20045;-72
2023/02/24 02:45:31;;;;;;;46.20;9.68;;;3.70;99.90;;;;;;5010584;28;20474;-69
2023/02/24 02:48:16;;;;;;;46.58;10.85;;;3.70;99.90;;;;;;5028820;28;22171;-71
2023/02/24 02:50:53;;;;;;;32.50;11.55;;;3.80;99.90;;;;;;5019313;28;20735;-71
2023/02/24 02:53:29;;;;;;;42.00;12.57;;;3.70;99.90;;;;;;5036129;28;20052;-71
2023/02/24 02:56:08;;;;;;;52.70;12.35;;;3.70;99.90;;;;;;5023343;28;20044;-70
2023/02/24 02:58:40;;;;;;;41.53;11.77;;;3.60;99.90;;;;;;5022868;28;20075;-69
2023/02/24 03:01:09;;;;;;;38.50;11.77;;;3.50;99.90;;;;;;5043412;28;20263;-71
2023/02/24 03:03:44;;;;;;;38.25;13.43;;;3.60;99.90;;;;;;5022171;28;20333;-72
2023/02/24 03:06:21;;;;;;;48.28;13.70;;;3.60;99.90;;;;;;5018585;28;20045;-70
2023/02/24 03:08:59;;;;;;;48.83;12.93;;;3.60;99.90;;;;;;5019705;28;20060;-70
2023/02/24 03:11:26;;;;;;;54.20;14.95;;;3.70;99.90;;;;;;5016994;28;20479;-70
2023/02/24 03:13:56;;;;;;;46.65;13.98;;;3.70;99.90;;;;;;5015507;28;20127;-71
2023/02/24 03:16:25;;;;;;;48.83;13.65;;;3.70;99.90;;;;;;5019594;28;20059;-71
2023/02/24 03:19:02;;;;;;;65.05;14.80;;;3.60;99.90;;;;;;5003900;28;20052;-71
2023/02/24 03:22:00;;;;;;;51.15;12.07;;;3.70;99.90;;;;;;5013806;28;20064;-72
2023/02/24 03:24:27;;;;;;;44.53;10.88;;;3.50;99.90;;;;;;5020277;28;20703;-72
2023/02/24 03:27:06;;;;;;;31.35;9.88;;;3.40;99.90;;;;;;5002299;28;20495;-72
2023/02/24 03:29:49;;;;;;;35.92;8.90;;;3.40;99.90;;;;;;5022253;28;20045;-73
2023/02/24 03:32:31;;;;;;;35.33;9.60;;;3.30;99.90;;;;;;5000841;28;20053;-71
2023/02/24 03:35:09;;;;;;;43.22;10.68;;;3.40;99.90;;;;;;5023182;28;20049;-72
2023/02/24 03:37:37;;;;;;;40.92;10.07;;;3.40;99.90;;;;;;5020593;28;20511;-72
2023/02/24 03:40:13;;;;;;;34.78;9.57;;;3.40;99.90;;;;;;5023352;28;20048;-72
2023/02/24 03:42:44;;;;;;;34.65;8.40;;;3.30;99.90;;;;;;5034103;28;20053;-72
2023/02/24 03:45:11;;;;;;;35.22;10.18;;;3.20;99.90;;;;;;5017498;28;20625;-72
2023/02/24 03:47:39;;;;;;;41.00;11.13;;;3.20;99.90;;;;;;5035356;28;20158;-73
2023/02/24 03:50:16;;;;;;;34.88;11.88;;;3.20;99.90;;;;;;5021304;28;20118;-72
2023/02/24 03:52:56;;;;;;;45.90;12.85;;;3.20;99.90;;;;;;5014374;28;20052;-72
2023/02/24 03:55:57;;;;;;;39.92;12.30;;;3.30;99.90;;;;;;5004715;28;20112;-72
2023/02/24 03:58:59;;;;;;;41.08;11.77;;;3.20;99.90;;;;;;5002167;28;20276;-72
2023/02/24 04:01:46;;;;;;;47.67;13.45;;;3.20;99.90;;;;;;5015190;28;20037;-72
2023/02/24 04:04:40;;;;;;;38.25;11.60;;;3.20;99.90;;;;;;5019892;28;20079;-72
2023/02/24 04:07:33;;;;;;;29.13;9.68;;;3.20;99.90;;;;;;5028837;28;20044;-72
2023/02/24 04:10:01;;;;;;;30.98;11.68;;;3.10;99.90;;;;;;5021705;28;20048;-72
2023/02/24 04:12:33;;;;;;;42.63;10.25;;;3.10;99.90;;;;;;5020150;28;20384;-72
2023/02/24 04:15:28;;;;;;;38.55;9.70;;;3.00;99.90;;;;;;5003439;28;20129;-72
2023/02/24 04:18:00;;;;;;;36.88;11.10;;;3.00;99.90;;;;;;5012650;28;20051;-71
2023/02/24 04:20:34;;;;;;;31.48;8.20;;;3.00;99.90;;;;;;5029762;28;20041;-71
2023/02/24 04:23:10;;;;;;;46.40;10.23;;;2.90;99.90;;;;;;5019249;28;20065;-72
2023/02/24 04:25:41;;;;;;;40.85;10.20;;;3.00;99.90;;;;;;5016422;28;20514;-74
2023/02/24 04:28:10;;;;;;;46.40;11.25;;;3.00;99.90;;;;;;5034665;28;20041;-71
2023/02/24 04:30:43;;;;;;;36.75;9.88;;;3.00;99.90;;;;;;5018189;28;20038;-72
2023/02/24 04:33:11;;;;;;;36.40;8.77;;;3.00;99.90;;;;;;5018592;28;20036;-72
2023/02/24 04:35:39;;;;;;;28.75;11.15;;;2.90;99.90;;;;;;5010264;28;20049;-72
2023/02/24 04:38:08;;;;;;;37.20;8.80;;;3.00;99.90;;;;;;5024404;23;20064;-76
2023/02/24 04:40:41;;;;;;;28.85;8.43;;;3.00;99.90;;;;;;4989613;28;20049;-76
2023/02/24 04:43:08;;;;;;;36.05;7.65;;;2.90;99.90;;;;;;4990629;28;20042;-77
2023/02/24 04:45:38;;;;;;;39.58;8.73;;;2.90;99.90;;;;;;4989632;28;20050;-77
2023/02/24 04:48:11;;;;;;;32.22;6.60;;;2.90;99.90;;;;;;4993735;28;20148;-78
2023/02/24 04:50:40;;;;;;;29.02;7.43;;;2.90;99.90;;;;;;4988477;28;20124;-75
2023/02/24 04:53:14;;;;;;;28.92;7.47;;;2.90;99.90;;;;;;5009371;28;20118;-79
2023/02/24 04:55:47;;;;;;;26.23;7.18;;;2.80;99.90;;;;;;4983435;28;20057;-80
2023/02/24 04:58:48;;;;;;;29.23;7.28;;;2.80;99.90;;;;;;4989683;28;20099;-78
2023/02/24 05:01:15;;;;;;;33.42;8.30;;;2.70;99.90;;;;;;4985782;28;20038;-80
2023/02/24 05:03:42;;;;;;;26.58;6.03;;;2.80;99.90;;;;;;4986760;28;20056;-80
2023/02/24 05:06:14;;;;;;;25.02;7.55;;;2.80;99.90;;;;;;4989248;28;20450;-78
2023/02/24 05:08:41;;;;;;;28.23;6.80;;;2.70;99.90;;;;;;4996120;28;20149;-77
2023/02/24 05:11:17;;;;;;;30.70;7.47;;;2.70;99.90;;;;;;4988449;28;20077;-76
2023/02/24 05:13:44;;;;;;;25.98;6.97;;;2.70;99.90;;;;;;4983801;28;20153;-79
2023/02/24 05:16:13;;;;;;;23.02;6.75;;;2.70;99.90;;;;;;5006899;28;20037;-81
2023/02/24 05:18:41;;;;;;;24.40;7.38;;;2.70;99.90;;;;;;4984787;28;20054;-78
2023/02/24 05:24:05;;;;;;;24.63;6.65;;;2.80;99.90;;;;;;4999834;28;20077;-79
2023/02/24 05:26:37;;;;;;;26.42;7.47;;;2.70;99.90;;;;;;4987863;28;20053;-78
2023/02/24 05:29:05;;;;;;;20.15;6.35;;;2.60;99.90;;;;;;4975457;28;20053;-78
2023/02/24 05:31:33;;;;;;;27.05;6.75;;;2.60;99.90;;;;;;5003729;28;20127;-80
2023/02/24 05:34:03;;;;;;;23.63;6.25;;;2.60;99.90;;;;;;4988800;28;20054;-77
2023/02/24 05:36:33;;;;;;;19.77;6.05;;;2.60;99.90;;;;;;5003059;28;20668;-77
2023/02/24 05:39:11;;;;;;;13.90;6.35;;;2.60;99.90;;;;;;5010762;28;20805;-78
2023/02/24 05:41:40;;;;;;;24.85;7.25;;;2.60;99.90;;;;;;4986196;28;20056;-77
2023/02/24 05:47:38;;;;;;;18.67;7.25;;;2.70;99.90;;;;;;5005796;28;20053;-79
2023/02/24 05:50:55;;;;;;;18.23;6.70;;;2.70;99.90;;;;;;4991047;28;20049;-78
2023/02/24 05:53:22;;;;;;;43.42;8.02;;;2.70;99.90;;;;;;4987735;28;20137;-78
2023/02/24 05:55:49;;;;;;;26.77;7.38;;;2.60;99.90;;;;;;4984810;28;20053;-77
2023/02/24 05:58:15;;;;;;;26.95;8.05;;;2.60;99.90;;;;;;4997475;28;20073;-79
2023/02/24 06:00:45;;;;;;;22.13;8.57;;;2.70;99.90;;;;;;4996474;28;20044;-77
2023/02/24 06:03:16;;;;;;;17.85;6.88;;;2.70;99.90;;;;;;4989984;28;20057;-81
2023/02/24 06:05:43;;;;;;;19.08;6.05;;;2.70;99.90;;;;;;4994804;28;20058;-77
2023/02/24 06:08:15;;;;;;;32.55;7.65;;;2.70;99.90;;;;;;4998753;28;20045;-77
2023/02/24 06:10:45;;;;;;;22.98;7.35;;;2.70;99.90;;;;;;5011106;28;20045;-75
2023/02/24 06:13:12;;;;;;;17.77;7.72;;;2.60;99.90;;;;;;4998409;28;20054;-75
2023/02/24 06:15:40;;;;;;;29.17;6.93;;;2.60;99.90;;;;;;4987008;28;20042;-77
2023/02/24 06:18:10;;;;;;;20.67;7.13;;;2.60;99.90;;;;;;4980702;28;20256;-77
2023/02/24 06:20:38;;;;;;;23.80;7.03;;;2.60;99.90;;;;;;4991360;28;20116;-75
2023/02/24 06:23:04;;;;;;;24.63;6.72;;;2.50;99.90;;;;;;5018473;28;20069;-75
2023/02/24 06:26:00;;;;;;;22.23;8.90;;;2.50;99.90;;;;;;4989375;28;20666;-75
2023/02/24 06:28:27;;;;;;;;;;;2.50;99.90;;;;;;4991750;28;20049;-75
2023/02/24 06:30:54;;;;;;;23.20;8.98;;;2.50;99.90;;;;;;4997561;28;19975;-75
2023/02/24 06:33:25;;;;;;;25.20;7.80;;;2.50;99.90;;;;;;5008634;28;20140;-73
2023/02/24 06:35:52;;;;;;;17.45;6.35;;;2.40;99.90;;;;;;5010906;28;20049;-74
2023/02/24 06:38:18;;;;;;;23.05;7.60;;;2.50;99.90;;;;;;5009035;28;20040;-76
2023/02/24 06:40:46;;;;;;;27.67;7.53;;;2.40;99.90;;;;;;4989338;28;20066;-75
2023/02/24 06:43:13;;;;;;;15.63;7.65;;;2.40;99.90;;;;;;5010576;28;20070;-75
2023/02/24 06:45:39;;;;;;;23.42;7.30;;;2.40;99.90;;;;;;4994191;28;20048;-76
2023/02/24 06:48:07;;;;;;;27.45;7.88;;;2.40;99.90;;;;;;5046704;23;20055;-74
2023/02/24 06:50:34;;;;;;;20.27;8.07;;;2.40;99.90;;;;;;5052296;28;20132;-74
2023/02/24 06:53:01;;;;;;;16.27;7.05;;;2.40;99.90;;;;;;5038824;28;20522;-75
2023/02/24 06:55:28;;;;;;;17.50;8.13;;;2.50;99.90;;;;;;5039462;28;20040;-76
2023/02/24 06:57:57;;;;;;;26.50;9.68;;;2.40;99.90;;;;;;5028903;28;20041;-74
2023/02/24 07:00:37;;;;;;;19.63;9.30;;;2.40;99.90;;;;;;5034691;28;20033;-75
2023/02/24 07:03:15;;;;;;;21.48;11.38;;;2.30;99.90;;;;;;5037187;28;20161;-74
2023/02/24 07:05:52;;;;;;;13.23;10.27;;;2.30;99.90;;;;;;5038533;28;20187;-73
2023/02/24 07:08:21;;;;;;;17.65;10.27;;;2.20;99.90;;;;;;5039291;28;20045;-73
2023/02/24 07:10:54;;;;;;;12.45;11.20;;;2.30;99.90;;;;;;5029286;28;20044;-77
2023/02/24 07:13:28;;;;;;;21.25;9.98;;;2.20;99.90;;;;;;5031871;28;20122;-75
2023/02/24 07:15:59;;;;;;;21.52;10.68;;;2.30;99.90;;;;;;5037457;28;20053;-75
2023/02/24 07:18:25;;;;;;;17.42;10.93;;;2.30;99.90;;;;;;5040328;28;20037;-75
2023/02/24 07:20:52;;;;;;;23.77;11.15;;;2.30;99.90;;;;;;5049176;28;20025;-74
2023/02/24 07:23:20;;;;;;;24.63;10.25;;;2.30;99.90;;;;;;5036088;28;20072;-75
2023/02/24 07:25:47;;;;;;;17.30;9.23;;;2.30;99.90;;;;;;5037716;28;20041;-75
2023/02/24 07:28:13;;;;;;;21.98;10.50;;;2.30;99.90;;;;;;5040269;28;20060;-74
2023/02/24 07:30:40;;;;;;;23.33;10.68;;;2.20;99.90;;;;;;5039506;28;20032;-76
2023/02/24 07:33:07;;;;;;;22.48;10.38;;;2.20;99.90;;;;;;5039537;28;20355;-73
2023/02/24 07:35:34;;;;;;;20.08;10.15;;;2.30;99.90;;;;;;5039839;28;20402;-73
2023/02/24 07:38:04;;;;;;;13.60;9.25;;;2.40;99.90;;;;;;5039029;28;20684;-73
2023/02/24 07:40:32;;;;;;;22.67;10.13;;;2.40;99.90;;;;;;5032469;28;20216;-73
2023/02/24 07:43:00;;;;;;;18.77;9.75;;;2.50;99.90;;;;;;5034293;28;20032;-73
2023/02/24 07:45:28;;;;;;;18.67;9.88;;;2.50;99.90;;;;;;5029647;28;20296;-73
2023/02/24 07:47:55;;;;;;;17.58;10.32;;;2.50;99.90;;;;;;5037727;28;20303;-73
2023/02/24 07:50:22;;;;;;;22.80;10.55;;;2.50;99.90;;;;;;5041716;28;20045;-73
2023/02/24 07:52:50;;;;;;;20.83;10.85;;;2.50;99.90;;;;;;5036783;28;20407;-73
2023/02/24 07:55:17;;;;;;;20.80;12.18;;;2.50;99.90;;;;;;5031500;28;20063;-72
2023/02/24 07:57:47;;;;;;;24.30;13.70;;;2.50;99.90;;;;;;5034181;28;20137;-72
2023/02/24 08:00:18;;;;;;;18.77;14.25;;;2.50;99.90;;;;;;5039681;28;20248;-72
2023/02/24 08:02:49;;;;;;;14.50;13.05;;;2.50;99.90;;;;;;5038671;28;20128;-72
2023/02/24 08:05:20;;;;;;;14.93;12.93;;;2.50;99.90;;;;;;5040254;28;20343;-72
2023/02/24 08:07:50;;;;;;;18.35;14.50;;;2.50;99.90;;;;;;5033305;28;20537;-72
2023/02/24 08:10:24;;;;;;;17.10;13.65;;;2.50;99.90;;;;;;5036374;28;20057;-72
2023/02/24 08:12:53;;;;;;;15.48;13.80;;;2.50;99.90;;;;;;5034016;28;20083;-71
2023/02/24 08:15:30;;;;;;;16.23;14.30;;;2.40;99.90;;;;;;5035096;28;20414;-72
2023/02/24 08:18:00;;;;;;;21.75;14.95;;;2.40;99.90;;;;;;5022900;28;20040;-72
2023/02/24 08:20:34;;;;;;;15.65;12.80;;;2.40;99.90;;;;;;5038648;28;20391;-72
2023/02/24 08:23:05;;;;;;;16.10;13.77;;;2.50;99.90;;;;;;5038662;28;20045;-73
2023/02/24 08:25:34;;;;;;;15.30;13.50;;;2.50;99.90;;;;;;5034974;28;20732;-72
2023/02/24 08:28:04;;;;;;;19.63;13.77;;;2.50;99.90;;;;;;5044463;28;20567;-72
2023/02/24 08:30:38;;;;;;;24.58;17.25;;;2.60;99.90;;;;;;5032211;28;20529;-72
2023/02/24 08:33:09;;;;;;;23.75;14.55;;;2.50;99.90;;;;;;5039322;28;20534;-72
2023/02/24 08:35:38;;;;;;;19.02;14.05;;;2.60;99.90;;;;;;5026635;28;20323;-72
2023/02/24 08:38:14;;;;;;;21.77;13.68;;;2.60;99.90;;;;;;5040776;28;20123;-72
2023/02/24 08:40:50;;;;;;;15.45;14.18;;;2.60;99.90;;;;;;5037931;28;20139;-72
2023/02/24 08:46:17;;;;;;;15.45;13.85;;;2.50;99.90;;;;;;5032019;28;20041;-74
2023/02/24 08:49:09;;;;;;;14.73;13.35;;;2.60;99.90;;;;;;5036411;28;20522;-74
2023/02/24 08:51:42;;;;;;;15.38;13.60;;;2.60;99.90;;;;;;5020246;28;20033;-73
2023/02/24 08:54:25;;;;;;;17.00;12.93;;;2.60;99.90;;;;;;5027714;28;20047;-72
2023/02/24 08:56:54;;;;;;;15.10;12.65;;;2.60;99.90;;;;;;5033844;28;20049;-71
2023/02/24 08:59:36;;;;;;;18.13;12.82;;;2.60;99.90;;;;;;5038017;28;20120;-71
2023/02/24 09:02:17;;;;;;;18.95;14.73;;;2.50;99.90;;;;;;5033671;28;20045;-73
2023/02/24 09:04:46;;;;;;;24.42;14.48;;;2.60;99.90;;;;;;5037923;28;20041;-72
2023/02/24 09:07:16;;;;;;;18.42;13.68;;;2.60;99.90;;;;;;5031006;28;20495;-72
2023/02/24 09:09:44;;;;;;;15.80;13.98;;;2.50;99.90;;;;;;5036789;28;20736;-72
2023/02/24 09:12:23;;;;;;;16.80;15.05;;;2.50;99.90;;;;;;5034383;28;20055;-72
2023/02/24 09:14:54;;;;;;;26.08;16.45;;;2.50;99.90;;;;;;5032436;28;20057;-72
2023/02/24 09:17:38;;;;;;;16.85;15.38;;;2.50;99.90;;;;;;5042602;28;20159;-72
2023/02/24 09:23:06;;;;;;;28.27;16.40;;;2.50;99.90;;;;;;5035550;28;20038;-72
2023/02/24 09:25:48;;;;;;;17.92;15.63;;;2.60;99.90;;;;;;5033258;28;20132;-72
2023/02/24 09:28:17;;;;;;;23.45;15.75;;;2.60;99.90;;;;;;5029437;28;20209;-72
2023/02/24 09:30:54;;;;;;;22.83;15.40;;;2.60;99.90;;;;;;5038854;28;20059;-72
2023/02/24 09:33:37;;;;;;;27.60;16.77;;;2.60;99.90;;;;;;5043522;28;20045;-72
2023/02/24 09:36:18;;;;;;;18.80;16.27;;;2.60;99.90;;;;;;5040907;28;20045;-72
2023/02/24 09:44:43;;;;;;;23.70;16.77;;;2.70;99.90;;;;;;5046242;28;20481;-73
2023/02/24 09:47:38;;;;;;;19.77;15.55;;;2.80;99.90;;;;;;5032611;28;20040;-72
2023/02/24 09:50:36;;;;;;;24.40;16.20;;;2.80;99.90;;;;;;5043453;28;20048;-72
2023/02/24 09:53:28;;;;;;;19.02;11.95;;;2.70;99.90;;;;;;5034849;28;20291;-72
2023/02/24 09:56:21;;;;;;;23.33;12.32;;;2.60;99.90;;;;;;5039685;28;20071;-72
2023/02/24 09:59:08;;;;;;;15.95;10.85;;;2.60;99.90;;;;;;5034545;28;20117;-72
2023/02/24 10:01:44;;;;;;;20.98;11.02;;;2.60;99.90;;;;;;5037765;28;20043;-71
2023/02/24 10:04:52;;;;;;;19.70;11.20;;;2.50;99.90;;;;;;5041843;28;20415;-71
2023/02/24 10:07:37;;;;;;;30.15;9.00;;;2.40;99.90;;;;;;5016146;28;20044;-71
2023/02/24 10:10:34;;;;;;;25.57;9.40;;;2.20;99.90;;;;;;5006214;28;20055;-73
2023/02/24 10:13:16;;;;;;;29.02;9.65;;;2.20;99.90;;;;;;5025187;28;20338;-72
2023/02/24 10:18:30;;;;;;;15.80;8.18;;;2.10;99.90;;;;;;5043608;28;20227;-73
2023/02/24 10:21:15;;;;;;;25.02;9.18;;;2.00;99.90;;;;;;5033181;28;20326;-72
2023/02/24 10:23:58;;;;;;;27.80;10.05;;;2.00;99.90;;;;;;5038362;28;20305;-73
2023/02/24 10:26:45;;;;;;;15.80;6.53;;;2.00;99.90;;;;;;5035666;28;20119;-73
2023/02/24 10:29:32;;;;;;;22.38;9.63;;;2.00;99.90;;;;;;5041094;28;20411;-73
2023/02/24 10:31:58;;;;;;;21.52;7.38;;;2.00;99.90;;;;;;5033744;28;20049;-73
2023/02/24 10:34:30;;;;;;;15.60;7.35;;;1.90;99.90;;;;;;5039663;28;20037;-73
2023/02/24 10:37:12;;;;;;;19.80;7.85;;;1.90;99.90;;;;;;5053988;23;20043;-72
2023/02/24 10:40:08;;;;;;;22.58;8.60;;;1.80;99.90;;;;;;5029655;28;20531;-74
2023/02/24 10:42:43;;;;;;;34.67;10.23;;;1.70;99.90;;;;;;5013734;28;20056;-74
2023/02/24 10:45:11;;;;;;;;;;;1.70;99.90;;;;;;5032834;28;20359;-74
2023/02/24 10:47:55;;;;;;;32.15;11.80;;;1.70;99.90;;;;;;5021957;28;20144;-74
2023/02/24 10:50:47;;;;;;;32.42;12.48;;;1.80;99.90;;;;;;5030021;28;20052;-74
2023/02/24 10:53:36;;;;;;;26.65;11.02;;;1.90;99.90;;;;;;5028692;28;20052;-74
2023/02/24 10:56:40;;;;;;;36.10;15.18;;;1.80;99.90;;;;;;5027327;28;20442;-74
2023/02/24 10:59:57;;;;;;;32.08;14.85;;;1.70;99.90;;;;;;5024632;28;20495;-74
2023/02/24 11:02:31;;;;;;;30.52;14.30;;;1.70;99.90;;;;;;5040116;28;20041;-76
2023/02/24 11:05:23;;;;;;;48.95;17.35;;;1.80;99.90;;;;;;5019532;28;20056;-75
2023/02/24 11:08:06;;;;;;;36.85;16.13;;;1.90;99.90;;;;;;5002417;28;20102;-75
2023/02/24 11:10:51;;;;;;;37.85;16.60;;;1.70;99.90;;;;;;5038149;28;20048;-75
2023/02/24 11:18:54;;;;;;;40.05;20.33;;;1.60;99.90;;;;;;5024514;28;20419;-75
2023/02/24 11:21:25;;;;;;;42.53;20.83;;;1.50;99.90;;;;;;5017142;28;20466;-75
2023/02/24 11:23:55;;;;;;;49.78;20.17;;;1.40;99.90;;;;;;5021843;28;20167;-75
2023/02/24 11:26:29;;;;;;;44.05;22.70;;;1.50;99.90;;;;;;5034125;28;20048;-75
2023/02/24 11:29:02;;;;;;;46.13;22.63;;;1.40;99.90;;;;;;5012264;28;20054;-75
2023/02/24 11:32:15;;;;;;;42.78;20.27;;;1.40;99.90;;;;;;5020890;28;20386;-75
2023/02/24 11:34:54;;;;;;;49.75;18.35;;;1.40;99.90;;;;;;5014730;28;20057;-76
2023/02/24 11:37:41;;;;;;;49.05;20.02;;;1.40;99.90;;;;;;5034538;28;20056;-75
2023/02/24 11:40:25;;;;;;;41.70;19.33;;;1.30;99.90;;;;;;5020075;28;20056;-75
2023/02/24 11:42:56;;;;;;;42.17;17.63;;;1.40;99.90;;;;;;5037169;28;20302;-74
2023/02/24 11:45:49;;;;;;;42.95;19.38;;;1.40;99.90;;;;;;5019070;28;20050;-75
2023/02/24 11:48:25;;;;;;;59.25;22.15;;;1.40;99.90;;;;;;5034257;28;20056;-75
2023/02/24 11:51:06;;;;;;;48.75;20.17;;;1.40;99.90;;;;;;5019239;28;20044;-74
2023/02/24 11:53:50;;;;;;;44.65;21.60;;;1.50;99.90;;;;;;5032719;28;20576;-74
2023/02/24 11:56:23;;;;;;;50.80;25.40;;;1.50;99.90;;;;;;5031231;28;20493;-74
2023/02/24 11:59:06;;;;;;;55.97;27.50;;;1.50;99.90;;;;;;5035884;28;20052;-73
2023/02/24 12:01:42;;;;;;;47.13;23.25;;;1.60;99.90;;;;;;5021331;28;20830;-74
2023/02/24 12:04:28;;;;;;;50.72;25.80;;;1.50;99.90;;;;;;5041789;28;20114;-74
2023/02/24 12:07:09;;;;;;;53.13;26.13;;;1.50;99.90;;;;;;5034242;28;20041;-74
2023/02/24 12:09:49;;;;;;;59.60;28.73;;;1.50;99.90;;;;;;5023875;28;20372;-73
2023/02/24 12:12:15;;;;;;;61.30;29.35;;;1.50;99.90;;;;;;5020223;28;20183;-74
2023/02/24 12:15:02;;;;;;;67.20;30.45;;;1.50;99.90;;;;;;5034307;28;20029;-74
2023/02/24 12:17:38;;;;;;;58.15;29.90;;;1.50;99.90;;;;;;5008548;28;20660;-75
2023/02/24 12:20:15;;;;;;;72.55;29.85;;;1.40;99.90;;;;;;5021010;28;20041;-74
2023/02/24 12:22:49;;;;;;;69.82;32.78;;;1.40;99.90;;;;;;5011374;28;20183;-73
2023/02/24 12:25:20;;;;;;;69.85;30.65;;;1.40;99.90;;;;;;5019346;28;20049;-73
2023/02/24 12:27:53;;;;;;;64.82;29.42;;;1.30;99.90;;;;;;5041059;28;20048;-74
2023/02/24 12:30:48;;;;;;;42.83;21.20;;;1.30;99.90;;;;;;5025050;28;20049;-74
2023/02/24 12:33:41;;;;;;;72.72;31.92;;;1.30;99.90;;;;;;5019897;28;20440;-74
2023/02/24 12:36:33;;;;;;;65.80;31.52;;;1.30;99.90;;;;;;5017325;28;20038;-73
2023/02/24 12:39:20;;;;;;;76.25;34.17;;;1.30;99.90;;;;;;5021116;28;20055;-73
2023/02/24 12:42:05;;;;;;;73.15;32.60;;;1.30;99.90;;;;;;5015750;28;20036;-74
2023/02/24 12:45:07;;;;;;;69.43;30.35;;;1.30;99.90;;;;;;5013290;28;20040;-74
2023/02/24 12:47:42;;;;;;;62.97;29.33;;;1.40;99.90;;;;;;5015570;28;20558;-74
2023/02/24 12:50:36;;;;;;;57.13;26.95;;;1.40;99.90;;;;;;5020982;28;20048;-73
2023/02/24 12:53:25;;;;;;;59.63;29.15;;;1.40;99.90;;;;;;5001822;28;20045;-74
2023/02/24 12:56:29;;;;;;;52.70;27.67;;;1.30;99.90;;;;;;5007289;28;20044;-74
2023/02/24 12:59:01;;;;;;;57.97;26.90;;;1.30;99.90;;;;;;5029798;28;20099;-74
2023/02/24 13:01:47;;;;;;;58.38;31.00;;;1.30;99.90;;;;;;5025250;28;20632;-74
2023/02/24 13:04:55;;;;;;;59.03;32.97;;;1.30;99.90;;;;;;5013854;28;20219;-74
2023/02/24 13:07:37;;;;;;;58.40;27.38;;;1.30;99.90;;;;;;5011493;28;20045;-73
2023/02/24 13:10:32;;;;;;;67.93;31.08;;;1.30;99.90;;;;;;5021235;28;20637;-74
2023/02/24 13:13:30;;;;;;;55.63;27.88;;;1.30;99.90;;;;;;5031205;28;20449;-74
2023/02/24 13:16:01;;;;;;;56.13;28.00;;;1.30;99.90;;;;;;5018992;28;20066;-74
2023/02/24 13:18:35;;;;;;;65.80;29.50;;;1.30;99.90;;;;;;5038102;28;20151;-74
2023/02/24 13:21:03;;;;;;;85.68;33.28;;;1.30;99.90;;;;;;5003984;28;20041;-74
2023/02/24 13:23:30;;;;;;;64.85;31.45;;;1.30;99.90;;;;;;5028001;28;20248;-73
2023/02/24 13:25:58;;;;;;;65.28;30.75;;;1.30;99.90;;;;;;5037224;28;20049;-74
2023/02/24 13:28:32;;;;;;;77.25;34.45;;;1.30;99.90;;;;;;5016568;28;20061;-74
2023/02/24 13:31:22;;;;;;;57.97;30.38;;;1.30;99.90;;;;;;5016380;28;20346;-73
2023/02/24 13:33:51;;;;;;;62.55;29.95;;;1.30;99.90;;;;;;5020704;28;20053;-74
2023/02/24 13:36:23;;;;;;;68.70;31.15;;;1.20;99.90;;;;;;5008058;28;20044;-74
2023/02/24 13:39:04;;;;;;;55.95;22.08;;;1.20;99.90;;;;;;5022615;28;20064;-74
2023/02/24 13:41:31;;;;;;;75.03;32.38;;;1.30;99.90;;;;;;5028518;28;20518;-74
2023/02/24 13:44:02;;;;;;;64.55;32.38;;;1.30;99.90;;;;;;5026166;28;20410;-74
2023/02/24 13:46:48;;;;;;;58.35;30.52;;;1.30;99.90;;;;;;5023328;28;20080;-74
2023/02/24 13:49:41;;;;;;;67.88;32.15;;;1.20;99.90;;;;;;5035262;28;20395;-74
2023/02/24 13:52:31;;;;;;;63.28;29.27;;;1.20;99.90;;;;;;5039585;28;20338;-74